createdAt,value
2017-09-04T00:02:16.509Z,56.70
2017-09-04T00:04:44.345Z,56.40
2017-09-04T00:07:12.039Z,56.50
2017-09-04T00:09:39.772Z,56.40
2017-09-04T00:12:07.475Z,56.50
2017-09-04T00:14:35.142Z,56.60
2017-09-04T00:17:02.966Z,56.40
2017-09-04T00:19:30.838Z,56.30
2017-09-04T00:21:58.594Z,56.40
2017-09-04T00:24:26.293Z,56.80
2017-09-04T00:26:53.946Z,56.30
2017-09-04T00:29:21.618Z,56.30
2017-09-04T00:31:49.312Z,56.30
2017-09-04T00:34:16.986Z,56.30
2017-09-04T00:36:44.671Z,56.10
2017-09-04T00:39:12.375Z,56.40
2017-09-04T00:41:40.058Z,56.20
2017-09-04T00:44:07.708Z,56.20
2017-09-04T00:46:35.433Z,56.40
2017-09-04T00:49:03.097Z,56.60
2017-09-04T00:51:30.759Z,56.50
2017-09-04T00:53:58.464Z,56.10
2017-09-04T00:56:26.147Z,56.40
2017-09-04T00:58:53.926Z,56.50
2017-09-04T01:01:22.843Z,56.50
2017-09-04T01:03:50.711Z,56.40
2017-09-04T01:06:18.539Z,56.40
2017-09-04T01:08:46.324Z,56.40
2017-09-04T01:11:14.189Z,56.50
2017-09-04T01:13:41.860Z,56.60
2017-09-04T01:16:09.575Z,56.70
2017-09-04T01:18:37.259Z,56.60
2017-09-04T01:21:04.943Z,56.70
2017-09-04T01:23:32.645Z,56.60
2017-09-04T01:26:00.376Z,56.80
2017-09-04T01:28:28.095Z,56.70
2017-09-04T01:30:55.787Z,56.70
2017-09-04T01:33:23.443Z,56.70
2017-09-04T01:35:51.102Z,56.70
2017-09-04T01:38:18.795Z,56.70
2017-09-04T01:40:46.461Z,56.80
2017-09-04T01:43:14.133Z,56.70
2017-09-04T01:45:41.796Z,56.60
2017-09-04T01:48:09.497Z,56.70
2017-09-04T01:50:37.156Z,57.00
2017-09-04T01:55:38.711Z,56.80
2017-09-04T01:58:06.410Z,57.00
2017-09-04T02:00:34.113Z,56.90
2017-09-04T02:03:01.764Z,56.90
2017-09-04T02:05:29.474Z,56.90
2017-09-04T02:07:57.123Z,56.90
2017-09-04T02:10:24.839Z,57.00
2017-09-04T02:12:52.503Z,56.70
2017-09-04T02:15:20.281Z,56.70
2017-09-04T02:17:48.450Z,56.70
2017-09-04T02:20:16.147Z,56.90
2017-09-04T02:22:43.983Z,56.90
2017-09-04T02:25:11.853Z,57.90
2017-09-04T02:27:39.718Z,57.30
2017-09-04T02:30:07.382Z,57.30
2017-09-04T02:32:35.070Z,57.40
2017-09-04T02:35:02.736Z,57.60
2017-09-04T02:37:30.413Z,57.20
2017-09-04T02:39:58.090Z,57.20
2017-09-04T02:42:25.793Z,57.20
2017-09-04T02:44:53.661Z,57.00
2017-09-04T02:47:21.421Z,57.00
2017-09-04T02:49:49.191Z,57.10
2017-09-04T02:52:17.059Z,57.00
2017-09-04T02:54:44.821Z,57.00
2017-09-04T02:57:12.695Z,57.00
2017-09-04T02:59:40.465Z,56.90
2017-09-04T03:02:08.328Z,57.00
2017-09-04T03:04:36.402Z,57.00
2017-09-04T03:07:04.163Z,57.00
2017-09-04T03:09:31.922Z,56.80
2017-09-04T03:11:59.604Z,56.90
2017-09-04T03:14:27.459Z,56.90
2017-09-04T03:16:55.155Z,57.10
2017-09-04T03:19:23.195Z,57.10
2017-09-04T03:21:51.170Z,56.80
2017-09-04T03:24:19.026Z,56.90
2017-09-04T03:26:46.794Z,57.00
2017-09-04T03:29:14.491Z,57.00
2017-09-04T03:31:42.184Z,57.00
2017-09-04T03:34:09.870Z,57.00
2017-09-04T03:36:37.529Z,56.90
2017-09-04T03:39:05.230Z,57.00
2017-09-04T03:41:32.893Z,57.10
2017-09-04T03:44:00.590Z,57.00
2017-09-04T03:46:28.343Z,56.90
2017-09-04T03:48:56.020Z,57.00
2017-09-04T03:51:23.734Z,57.10
2017-09-04T03:53:51.405Z,56.90
2017-09-04T03:56:19.089Z,57.10
2017-09-04T03:58:46.811Z,57.20
2017-09-04T04:01:14.476Z,57.20
2017-09-04T04:03:42.139Z,57.20
2017-09-04T04:06:09.841Z,57.20
2017-09-04T04:08:37.514Z,57.10
2017-09-04T04:11:05.205Z,57.10
2017-09-04T04:13:32.886Z,57.30
2017-09-04T04:16:00.576Z,57.20
2017-09-04T04:18:28.260Z,57.30
2017-09-04T04:20:56.031Z,57.20
2017-09-04T04:23:23.722Z,57.20
2017-09-04T04:25:51.366Z,57.20
2017-09-04T04:28:19.032Z,57.20
2017-09-04T04:30:46.716Z,57.20
2017-09-04T04:33:14.424Z,57.10
2017-09-04T04:35:42.102Z,57.30
2017-09-04T04:38:09.813Z,57.40
2017-09-04T04:40:37.451Z,57.40
2017-09-04T04:43:05.134Z,57.30
2017-09-04T04:45:32.821Z,57.40
2017-09-04T04:48:00.487Z,57.30
2017-09-04T04:50:28.203Z,57.20
2017-09-04T04:52:55.911Z,57.30
2017-09-04T04:55:23.560Z,57.30
2017-09-04T04:57:51.282Z,57.20
2017-09-04T05:00:18.921Z,57.40
2017-09-04T05:02:46.586Z,57.40
2017-09-04T05:05:14.283Z,57.50
2017-09-04T05:07:41.965Z,57.40
2017-09-04T05:10:09.652Z,57.40
2017-09-04T05:12:37.298Z,57.40
2017-09-04T05:15:05.000Z,57.50
2017-09-04T05:17:32.642Z,57.70
2017-09-04T05:20:00.303Z,57.60
2017-09-04T05:22:27.976Z,57.60
2017-09-04T05:24:55.660Z,57.70
2017-09-04T05:27:23.363Z,58.40
2017-09-04T05:29:51.063Z,57.80
2017-09-04T05:32:18.789Z,57.90
2017-09-04T05:34:46.454Z,58.00
2017-09-04T05:37:14.122Z,57.90
2017-09-04T05:39:41.826Z,58.10
2017-09-04T05:42:09.688Z,58.20
2017-09-04T05:44:38.335Z,58.40
2017-09-04T05:47:06.038Z,58.30
2017-09-04T05:49:33.865Z,58.30
2017-09-04T05:52:01.731Z,58.60
2017-09-04T05:54:29.427Z,58.70
2017-09-04T05:56:57.565Z,58.90
2017-09-04T05:59:25.259Z,59.00
2017-09-04T06:01:53.104Z,59.00
2017-09-04T06:04:20.966Z,59.30
2017-09-04T06:06:49.189Z,59.30
2017-09-04T06:09:16.927Z,59.30
2017-09-04T06:11:44.774Z,59.40
2017-09-04T06:14:12.443Z,59.20
2017-09-04T06:16:40.155Z,58.90
2017-09-04T06:19:07.846Z,58.90
2017-09-04T06:21:35.530Z,58.90
2017-09-04T06:24:03.190Z,59.00
2017-09-04T06:26:30.970Z,59.20
2017-09-04T06:28:58.645Z,59.00
2017-09-04T06:31:26.355Z,59.10
2017-09-04T06:33:54.007Z,59.10
2017-09-04T06:36:21.686Z,59.00
2017-09-04T06:38:49.405Z,58.90
2017-09-04T06:41:17.059Z,59.10
2017-09-04T06:43:44.755Z,59.20
2017-09-04T06:46:12.441Z,59.70
2017-09-04T06:48:40.155Z,59.30
2017-09-04T06:51:07.860Z,59.40
2017-09-04T06:53:35.571Z,59.40
2017-09-04T06:56:03.303Z,59.30
2017-09-04T06:58:30.955Z,59.30
2017-09-04T07:00:59.039Z,59.20
2017-09-04T07:03:26.909Z,59.30
2017-09-04T07:05:54.676Z,59.40
2017-09-04T07:08:22.644Z,59.30
2017-09-04T07:10:50.514Z,59.40
2017-09-04T07:13:18.378Z,59.40
2017-09-04T07:15:46.154Z,59.50
2017-09-04T07:18:13.830Z,60.00
2017-09-04T07:20:41.882Z,60.00
2017-09-04T07:23:09.759Z,59.90
2017-09-04T07:25:38.270Z,59.90
2017-09-04T07:28:06.108Z,60.00
2017-09-04T07:30:33.929Z,60.10
2017-09-04T07:33:01.780Z,60.00
2017-09-04T07:35:29.596Z,60.00
2017-09-04T07:37:57.474Z,60.00
2017-09-04T07:40:25.277Z,60.10
2017-09-04T07:42:53.102Z,60.00
2017-09-04T07:45:20.865Z,60.00
2017-09-04T07:47:48.728Z,60.30
2017-09-04T07:50:16.492Z,60.00
2017-09-04T07:52:44.358Z,62.00
2017-09-04T07:55:12.268Z,60.70
2017-09-04T07:57:40.022Z,60.80
2017-09-04T08:00:07.967Z,60.20
2017-09-04T08:02:35.611Z,60.10
2017-09-04T08:05:03.396Z,61.20
2017-09-04T08:07:31.264Z,60.80
2017-09-04T08:09:59.017Z,60.60
2017-09-04T08:12:26.714Z,60.20
2017-09-04T08:14:54.579Z,59.90
2017-09-04T08:17:22.309Z,61.80
2017-09-04T08:19:50.280Z,61.60
2017-09-04T08:22:18.148Z,60.60
2017-09-04T08:24:45.955Z,60.40
2017-09-04T08:27:13.878Z,59.90
2017-09-04T08:29:41.666Z,59.70
2017-09-04T08:32:09.513Z,59.40
2017-09-04T08:34:37.300Z,59.40
2017-09-04T08:37:04.978Z,59.40
2017-09-04T08:39:32.912Z,59.50
2017-09-04T08:42:00.799Z,59.50
2017-09-04T08:44:28.541Z,58.90
2017-09-04T08:46:56.409Z,58.40
2017-09-04T08:49:24.243Z,58.10
2017-09-04T08:51:52.040Z,58.50
2017-09-04T08:54:19.742Z,57.50
2017-09-04T08:56:47.521Z,57.00
2017-09-04T08:59:15.206Z,56.60
2017-09-04T09:01:42.934Z,56.60
2017-09-04T09:04:10.676Z,56.50
2017-09-04T09:06:38.349Z,56.80
2017-09-04T09:09:06.124Z,56.30
2017-09-04T09:11:33.953Z,56.50
2017-09-04T09:14:01.823Z,56.30
2017-09-04T09:16:29.914Z,55.50
2017-09-04T09:18:57.880Z,55.50
2017-09-04T09:21:25.656Z,56.20
2017-09-04T09:23:53.497Z,55.30
2017-09-04T09:26:21.363Z,54.80
2017-09-04T09:28:49.327Z,54.70
2017-09-04T09:31:17.095Z,55.00
2017-09-04T09:33:45.168Z,55.00
2017-09-04T09:36:13.261Z,55.00
2017-09-04T09:38:41.109Z,54.80
2017-09-04T09:41:08.755Z,54.20
2017-09-04T09:43:36.470Z,54.20
2017-09-04T09:46:04.151Z,53.60
2017-09-04T09:48:32.681Z,53.90
2017-09-04T09:51:00.382Z,53.80
2017-09-04T09:53:28.077Z,53.50
2017-09-04T09:55:55.975Z,53.20
2017-09-04T09:58:23.839Z,53.10
2017-09-04T10:00:51.602Z,52.80
2017-09-04T10:03:19.296Z,53.10
2017-09-04T10:05:47.011Z,52.10
2017-09-04T10:08:14.740Z,52.80
2017-09-04T10:10:42.560Z,52.30
2017-09-04T10:13:10.325Z,51.80
2017-09-04T10:15:38.217Z,51.80
2017-09-04T10:18:06.060Z,52.60
2017-09-04T10:20:34.047Z,52.10
2017-09-04T10:23:01.738Z,51.80
2017-09-04T10:25:30.380Z,51.80
2017-09-04T10:27:58.143Z,51.70
2017-09-04T10:30:25.938Z,51.50
2017-09-04T10:32:53.779Z,51.90
2017-09-04T10:35:21.444Z,51.60
2017-09-04T10:37:49.128Z,53.00
2017-09-04T10:40:16.865Z,51.70
2017-09-04T10:42:44.612Z,50.80
2017-09-04T10:45:12.506Z,50.00
2017-09-04T10:47:40.266Z,50.50
2017-09-04T10:50:08.030Z,50.40
2017-09-04T10:52:35.894Z,49.60
2017-09-04T10:55:03.661Z,49.60
2017-09-04T10:57:31.347Z,49.20
2017-09-04T10:59:59.079Z,49.10
2017-09-04T11:02:26.724Z,49.10
2017-09-04T11:04:54.406Z,49.10
2017-09-04T11:07:22.561Z,49.20
2017-09-04T11:09:50.286Z,49.10
2017-09-04T11:12:17.943Z,49.50
2017-09-04T11:14:45.770Z,49.80
2017-09-04T11:17:13.643Z,49.20
2017-09-04T11:19:41.326Z,49.20
2017-09-04T11:22:09.306Z,49.00
2017-09-04T11:24:37.148Z,49.10
2017-09-04T11:27:04.850Z,48.40
2017-09-04T11:29:32.574Z,48.00
2017-09-04T11:32:00.338Z,50.40
2017-09-04T11:34:28.030Z,49.20
2017-09-04T11:36:55.868Z,48.40
2017-09-04T11:39:23.836Z,48.90
2017-09-04T11:41:51.725Z,49.20
2017-09-04T11:44:19.467Z,50.30
2017-09-04T11:46:47.339Z,48.70
2017-09-04T11:49:15.105Z,47.80
2017-09-04T11:51:44.101Z,47.80
2017-09-04T11:54:11.784Z,48.20
2017-09-04T11:56:39.739Z,46.50
2017-09-04T11:59:07.440Z,46.50
2017-09-04T12:01:35.107Z,46.00
2017-09-04T12:04:02.801Z,46.20
2017-09-04T12:06:30.558Z,46.90
2017-09-04T12:08:58.257Z,47.10
2017-09-04T12:11:33.768Z,45.50
2017-09-04T12:14:01.486Z,46.80
2017-09-04T12:16:29.207Z,48.00
2017-09-04T12:18:56.884Z,48.40
2017-09-04T12:21:24.645Z,46.20
2017-09-04T12:23:52.333Z,47.10
2017-09-04T12:26:20.206Z,45.60
2017-09-04T12:28:48.132Z,46.10
2017-09-04T12:31:15.927Z,45.00
2017-09-04T12:33:43.667Z,44.40
2017-09-04T12:36:11.540Z,45.00
2017-09-04T12:38:39.301Z,43.60
2017-09-04T12:41:07.068Z,43.60
2017-09-04T12:43:34.777Z,43.70
2017-09-04T12:46:02.428Z,44.80
2017-09-04T12:48:30.352Z,47.10
2017-09-04T12:50:58.118Z,46.70
2017-09-04T12:53:25.819Z,46.30
2017-09-04T12:55:53.484Z,45.10
2017-09-04T12:58:21.173Z,44.80
2017-09-04T13:00:48.848Z,44.50
2017-09-04T13:03:16.572Z,44.90
2017-09-04T13:05:45.060Z,44.90
2017-09-04T13:08:12.891Z,44.30
2017-09-04T13:10:46.210Z,45.60
2017-09-04T13:13:29.660Z,44.70
2017-09-04T13:19:04.700Z,46.90
2017-09-04T13:21:37.962Z,45.70
2017-09-04T13:24:11.393Z,46.30
2017-09-04T13:26:44.867Z,46.20
2017-09-04T13:29:18.263Z,44.60
2017-09-04T13:34:56.087Z,42.90
2017-09-04T13:37:29.528Z,43.70
2017-09-04T13:40:02.846Z,44.60
2017-09-04T13:42:36.466Z,45.50
2017-09-04T13:45:09.990Z,46.40
2017-09-04T13:47:43.561Z,46.30
2017-09-04T13:50:16.793Z,44.70
2017-09-04T13:52:50.264Z,45.40
2017-09-04T13:55:23.765Z,45.80
2017-09-04T13:57:57.211Z,46.20
2017-09-04T14:03:35.830Z,43.10
2017-09-04T14:09:09.014Z,45.00
2017-09-04T14:11:42.262Z,44.40
2017-09-04T14:14:15.698Z,45.60
2017-09-04T14:16:51.879Z,45.00
2017-09-04T14:19:19.542Z,45.00
2017-09-04T14:21:47.170Z,44.10
2017-09-04T14:24:14.794Z,43.70
2017-09-04T14:26:42.526Z,43.70
2017-09-04T14:29:10.283Z,43.20
2017-09-04T14:31:37.918Z,44.00
2017-09-04T14:34:05.595Z,44.70
2017-09-04T14:36:33.226Z,44.60
2017-09-04T14:39:00.850Z,45.30
2017-09-04T14:41:28.514Z,44.00
2017-09-04T14:43:56.246Z,44.60
2017-09-04T14:46:29.537Z,43.70
2017-09-04T14:48:57.179Z,44.00
2017-09-04T14:51:24.884Z,45.00
2017-09-04T14:53:52.524Z,45.00
2017-09-04T14:56:20.290Z,43.60
2017-09-04T14:58:47.921Z,44.80
2017-09-04T15:01:15.554Z,45.30
2017-09-04T15:03:43.216Z,45.00
2017-09-04T15:06:10.860Z,45.30
2017-09-04T15:08:38.511Z,45.10
2017-09-04T15:11:06.155Z,44.80
2017-09-04T15:13:33.804Z,45.00
2017-09-04T15:16:01.437Z,45.10
2017-09-04T15:18:29.110Z,45.10
2017-09-04T15:20:56.844Z,45.20
2017-09-04T15:23:24.604Z,45.00
2017-09-04T15:25:52.379Z,45.00
2017-09-04T15:28:19.992Z,45.30
2017-09-04T15:30:47.678Z,44.90
2017-09-04T15:33:15.302Z,44.90
2017-09-04T15:35:43.005Z,45.70
2017-09-04T15:38:10.768Z,45.70
2017-09-04T15:40:38.412Z,45.30
2017-09-04T15:43:06.048Z,45.20
2017-09-04T15:45:33.711Z,45.70
2017-09-04T15:48:01.344Z,45.10
2017-09-04T15:50:29.006Z,45.20
2017-09-04T15:52:56.637Z,44.80
2017-09-04T15:55:24.315Z,45.20
2017-09-04T15:57:51.946Z,45.40
2017-09-04T16:00:19.574Z,45.40
2017-09-04T16:02:47.252Z,45.20
2017-09-04T16:05:14.877Z,45.60
2017-09-04T16:07:43.031Z,45.80
2017-09-04T16:10:10.685Z,46.30
2017-09-04T16:12:48.455Z,45.30
2017-09-04T16:15:31.905Z,45.30
2017-09-04T16:18:03.424Z,45.50
2017-09-04T16:20:31.541Z,45.60
2017-09-04T16:23:00.706Z,45.40
2017-09-04T16:28:22.873Z,45.70
2017-09-04T16:30:52.004Z,45.60
2017-09-04T16:33:37.495Z,45.90
2017-09-04T16:36:08.701Z,46.00
2017-09-04T16:38:40.047Z,46.30
2017-09-04T16:41:07.836Z,46.20
2017-09-04T16:43:37.753Z,46.20
2017-09-04T16:46:06.843Z,46.40
2017-09-04T16:48:36.414Z,46.30
2017-09-04T17:04:31.217Z,47.10
2017-09-04T17:06:58.860Z,47.10
2017-09-04T17:09:26.711Z,47.20
2017-09-04T17:14:58.166Z,47.20
2017-09-04T17:17:47.417Z,47.20
2017-09-04T17:20:31.390Z,47.40
2017-09-04T17:23:02.959Z,47.50
2017-09-04T17:25:46.413Z,47.60
2017-09-04T17:28:14.301Z,47.70
2017-09-04T17:30:42.183Z,47.80
2017-09-04T17:33:10.088Z,48.30
2017-09-04T17:35:38.437Z,47.70
2017-09-04T17:40:59.258Z,47.90
2017-09-04T17:43:27.163Z,48.60
2017-09-04T17:45:55.511Z,48.00
2017-09-04T17:48:23.572Z,47.90
2017-09-04T17:51:05.994Z,48.40
2017-09-04T17:53:33.878Z,48.40
2017-09-04T17:56:01.787Z,48.60
2017-09-04T17:58:57.935Z,48.70
2017-09-04T18:01:26.173Z,48.80
2017-09-04T18:03:53.980Z,48.80
2017-09-04T18:06:21.818Z,48.90
2017-09-04T18:08:49.541Z,48.90
2017-09-04T18:11:17.322Z,48.80
2017-09-04T18:13:45.044Z,49.10
2017-09-04T18:16:12.770Z,49.40
2017-09-04T18:18:40.666Z,49.40
2017-09-04T18:21:08.515Z,49.70
2017-09-04T18:23:36.337Z,49.60
2017-09-04T18:26:04.080Z,49.70
2017-09-04T18:28:31.880Z,49.80
2017-09-04T18:30:59.669Z,49.70
2017-09-04T18:33:27.354Z,49.80
2017-09-04T18:35:55.177Z,49.80
2017-09-04T18:38:22.930Z,49.80
2017-09-04T18:40:50.669Z,49.80
2017-09-04T18:43:18.403Z,49.90
2017-09-04T18:45:46.177Z,49.90
2017-09-04T18:48:13.836Z,50.30
2017-09-04T18:53:34.445Z,50.40
2017-09-04T18:56:02.432Z,50.40
2017-09-04T18:58:41.749Z,50.80
2017-09-04T19:15:41.217Z,51.20
2017-09-04T19:18:09.077Z,51.20
2017-09-04T19:23:43.401Z,51.40
2017-09-04T19:26:13.468Z,51.40
2017-09-04T19:38:02.612Z,51.90
2017-09-04T19:40:31.211Z,51.90
2017-09-04T19:42:59.294Z,52.10
2017-09-04T19:45:27.271Z,52.10
2017-09-04T19:48:03.006Z,52.30
2017-09-04T19:50:37.042Z,52.20
2017-09-04T19:56:07.373Z,52.20
2017-09-04T19:58:51.222Z,52.40
2017-09-04T20:07:05.961Z,52.60
2017-09-04T20:09:34.047Z,52.70
2017-09-04T20:14:53.446Z,52.80
2017-09-04T20:17:21.414Z,53.00
2017-09-04T20:19:49.700Z,53.10
2017-09-04T20:22:17.527Z,53.20
2017-09-04T20:24:46.608Z,53.30
2017-09-04T20:27:14.805Z,53.40
2017-09-04T20:29:50.084Z,53.40
2017-09-04T20:32:17.983Z,53.60
2017-09-04T20:34:46.100Z,54.30
2017-09-04T20:37:13.923Z,53.60
2017-09-04T20:39:42.250Z,54.10
2017-09-04T20:42:09.956Z,53.50
2017-09-04T20:44:37.579Z,53.90
2017-09-04T20:47:05.423Z,54.10
2017-09-04T20:49:33.247Z,53.90
2017-09-04T20:52:00.931Z,54.10
2017-09-04T20:54:28.590Z,54.20
2017-09-04T20:56:56.213Z,54.20
2017-09-04T20:59:23.919Z,54.30
2017-09-04T21:01:51.563Z,54.50
2017-09-04T21:04:19.247Z,54.60
2017-09-04T21:06:46.905Z,54.70
2017-09-04T21:09:14.542Z,54.70
2017-09-04T21:11:42.219Z,54.70
2017-09-04T21:14:09.881Z,54.30
2017-09-04T21:16:37.498Z,54.20
2017-09-04T21:19:05.156Z,54.20
2017-09-04T21:21:32.813Z,54.50
2017-09-04T21:24:00.478Z,54.60
2017-09-04T21:26:28.124Z,54.50
2017-09-04T21:28:55.771Z,54.60
2017-09-04T21:31:23.446Z,54.60
2017-09-04T21:33:51.068Z,54.60
2017-09-04T21:36:18.704Z,54.60
2017-09-04T21:38:46.375Z,54.70
2017-09-04T21:41:14.021Z,55.00
2017-09-04T21:43:41.794Z,55.10
2017-09-04T21:46:09.460Z,55.00
2017-09-04T21:48:37.349Z,54.90
2017-09-04T21:51:05.161Z,55.10
2017-09-04T21:53:32.832Z,55.00
2017-09-04T21:56:00.631Z,54.80
2017-09-04T21:58:28.407Z,54.90
2017-09-04T22:00:58.733Z,54.60
2017-09-04T22:03:26.693Z,54.90
2017-09-04T22:05:54.387Z,55.10
2017-09-04T22:08:22.131Z,55.10
2017-09-04T22:10:49.998Z,55.30
2017-09-04T22:13:17.868Z,55.20
2017-09-04T22:15:45.643Z,55.10
2017-09-04T22:18:13.410Z,55.10
2017-09-04T22:20:41.211Z,55.40
2017-09-04T22:23:08.903Z,55.80
2017-09-04T22:25:36.675Z,55.20
2017-09-04T22:28:04.463Z,55.20
2017-09-04T22:30:32.215Z,55.40
2017-09-04T22:32:59.985Z,55.20
2017-09-04T22:35:27.728Z,55.30
2017-09-04T22:37:55.402Z,55.20
2017-09-04T22:40:23.705Z,55.40
2017-09-04T22:42:51.377Z,55.80
2017-09-04T22:45:19.053Z,55.50
2017-09-04T22:47:46.830Z,55.40
2017-09-04T22:50:14.505Z,55.40
2017-09-04T22:52:42.334Z,55.40
2017-09-04T22:55:10.040Z,55.40
2017-09-04T22:57:37.847Z,55.50
2017-09-04T23:00:06.346Z,56.30
2017-09-04T23:02:34.058Z,55.60
2017-09-04T23:05:01.764Z,55.40
2017-09-04T23:07:29.591Z,55.20
2017-09-04T23:09:57.363Z,55.10
2017-09-04T23:12:25.236Z,55.20
2017-09-04T23:14:53.101Z,55.40
2017-09-04T23:17:20.847Z,56.00
2017-09-04T23:19:48.708Z,56.00
2017-09-04T23:22:16.476Z,56.00
2017-09-04T23:24:44.158Z,55.80
2017-09-04T23:27:11.912Z,55.80
2017-09-04T23:29:39.673Z,56.00
2017-09-04T23:32:07.326Z,55.80
2017-09-04T23:34:34.984Z,55.80
2017-09-04T23:37:02.653Z,55.90
2017-09-04T23:39:30.301Z,56.00
2017-09-04T23:41:57.967Z,56.00
2017-09-04T23:44:25.669Z,55.90
2017-09-04T23:46:53.298Z,55.90
2017-09-04T23:49:20.959Z,55.80
2017-09-04T23:51:48.596Z,56.10
2017-09-04T23:54:17.042Z,56.40
2017-09-04T23:56:44.676Z,57.00
2017-09-04T23:59:12.325Z,56.20
